sensor_id;sensor_type;location;lat;lon;timestamp;pressure;altitude;pressure_sealevel;temperature;humidity
40315;BME280;26021;45.640;11.302;2023-04-07T00:00:58;98818.88;;;6.18;87.92
40315;BME280;26021;45.640;11.302;2023-04-07T00:03:23;98813.97;;;6.23;86.64
40315;BME280;26021;45.640;11.302;2023-04-07T00:05:48;98816.84;;;6.29;85.55
40315;BME280;26021;45.640;11.302;2023-04-07T00:08:14;98818.81;;;6.10;85.76
40315;BME280;26021;45.640;11.302;2023-04-07T00:10:40;98806.41;;;6.00;87.38
40315;BME280;26021;45.640;11.302;2023-04-07T00:13:05;98767.72;;;5.98;86.36
40315;BME280;26021;45.640;11.302;2023-04-07T00:15:31;98808.34;;;6.26;87.02
40315;BME280;26021;45.640;11.302;2023-04-07T00:17:56;98800.00;;;6.21;87.21
40315;BME280;26021;45.640;11.302;2023-04-07T00:20:22;98712.44;;;5.84;85.52
40315;BME280;26021;45.640;11.302;2023-04-07T00:22:47;98733.53;;;5.95;85.07
40315;BME280;26021;45.640;11.302;2023-04-07T00:25:13;98801.00;;;6.37;85.59
40315;BME280;26021;45.640;11.302;2023-04-07T00:27:38;98801.72;;;6.12;87.01
40315;BME280;26021;45.640;11.302;2023-04-07T00:30:05;98804.25;;;6.14;88.24
40315;BME280;26021;45.640;11.302;2023-04-07T00:32:30;98804.22;;;5.96;89.82
40315;BME280;26021;45.640;11.302;2023-04-07T00:34:56;98803.16;;;6.07;88.61
40315;BME280;26021;45.640;11.302;2023-04-07T00:37:21;98783.53;;;6.17;85.92
40315;BME280;26021;45.640;11.302;2023-04-07T00:39:47;98762.72;;;5.95;86.58
40315;BME280;26021;45.640;11.302;2023-04-07T00:42:12;98797.47;;;6.01;89.48
40315;BME280;26021;45.640;11.302;2023-04-07T00:44:38;98796.16;;;5.78;92.01
40315;BME280;26021;45.640;11.302;2023-04-07T00:47:03;98798.34;;;5.55;95.77
40315;BME280;26021;45.640;11.302;2023-04-07T00:49:29;98794.09;;;5.72;94.71
40315;BME280;26021;45.640;11.302;2023-04-07T00:51:56;98745.72;;;5.78;90.83
40315;BME280;26021;45.640;11.302;2023-04-07T00:54:22;98786.50;;;6.14;90.28
40315;BME280;26021;45.640;11.302;2023-04-07T00:56:48;98781.25;;;6.04;90.01
40315;BME280;26021;45.640;11.302;2023-04-07T00:59:14;98784.59;;;6.07;89.45
40315;BME280;26021;45.640;11.302;2023-04-07T01:01:44;98789.69;;;5.90;89.88
40315;BME280;26021;45.640;11.302;2023-04-07T01:06:56;98786.09;;;6.09;88.99
40315;BME280;26021;45.640;11.302;2023-04-07T01:09:34;98790.94;;;5.96;89.78
40315;BME280;26021;45.640;11.302;2023-04-07T01:14:53;98794.44;;;5.96;90.94
40315;BME280;26021;45.640;11.302;2023-04-07T01:17:22;98780.56;;;6.02;89.56
40315;BME280;26021;45.640;11.302;2023-04-07T01:20:00;98786.31;;;5.88;90.33
40315;BME280;26021;45.640;11.302;2023-04-07T01:22:55;98782.44;;;5.83;92.02
40315;BME280;26021;45.640;11.302;2023-04-07T01:28:40;98782.97;;;5.96;92.87
40315;BME280;26021;45.640;11.302;2023-04-07T01:31:11;98779.59;;;5.94;94.07
40315;BME280;26021;45.640;11.302;2023-04-07T01:33:38;98778.44;;;6.06;91.55
40315;BME280;26021;45.640;11.302;2023-04-07T01:36:08;98731.13;;;5.64;90.49
40315;BME280;26021;45.640;11.302;2023-04-07T01:38:34;98783.16;;;6.30;88.88
40315;BME280;26021;45.640;11.302;2023-04-07T01:41:00;98779.97;;;6.26;88.98
40315;BME280;26021;45.640;11.302;2023-04-07T01:43:27;98779.56;;;6.03;90.56
40315;BME280;26021;45.640;11.302;2023-04-07T01:45:56;98740.72;;;5.75;90.60
40315;BME280;26021;45.640;11.302;2023-04-07T01:48:22;98769.81;;;5.94;91.51
40315;BME280;26021;45.640;11.302;2023-04-07T01:50:48;98784.06;;;5.93;91.02
40315;BME280;26021;45.640;11.302;2023-04-07T01:53:14;98783.97;;;5.85;92.77
40315;BME280;26021;45.640;11.302;2023-04-07T01:55:44;98759.06;;;5.68;91.70
40315;BME280;26021;45.640;11.302;2023-04-07T01:58:09;98781.94;;;5.69;92.81
40315;BME280;26021;45.640;11.302;2023-04-07T02:00:35;98785.22;;;5.81;91.55
40315;BME280;26021;45.640;11.302;2023-04-07T02:03:08;98760.91;;;5.58;90.56
40315;BME280;26021;45.640;11.302;2023-04-07T02:05:37;98779.59;;;5.66;91.01
40315;BME280;26021;45.640;11.302;2023-04-07T02:08:05;98775.25;;;5.65;92.45
40315;BME280;26021;45.640;11.302;2023-04-07T02:10:35;98731.44;;;5.34;93.13
40315;BME280;26021;45.640;11.302;2023-04-07T02:13:03;98782.00;;;5.97;91.83
40315;BME280;26021;45.640;11.302;2023-04-07T02:15:30;98773.81;;;6.08;91.47
40315;BME280;26021;45.640;11.302;2023-04-07T02:17:59;98780.81;;;5.72;96.23
40315;BME280;26021;45.640;11.302;2023-04-07T02:20:27;98782.72;;;5.80;93.50
40315;BME280;26021;45.640;11.302;2023-04-07T02:22:52;98651.72;;;5.08;92.08
40315;BME280;26021;45.640;11.302;2023-04-07T02:25:24;98776.53;;;5.89;94.06
40315;BME280;26021;45.640;11.302;2023-04-07T02:27:50;98782.69;;;5.99;93.28
40315;BME280;26021;45.640;11.302;2023-04-07T02:30:15;98782.63;;;5.71;94.19
40315;BME280;26021;45.640;11.302;2023-04-07T02:32:41;98783.53;;;5.90;91.65
40315;BME280;26021;45.640;11.302;2023-04-07T02:35:06;98784.22;;;5.92;90.83
40315;BME280;26021;45.640;11.302;2023-04-07T02:37:32;98780.75;;;5.91;92.55
40315;BME280;26021;45.640;11.302;2023-04-07T02:39:57;98706.50;;;5.54;92.43
40315;BME280;26021;45.640;11.302;2023-04-07T02:42:23;98761.56;;;5.70;93.59
40315;BME280;26021;45.640;11.302;2023-04-07T02:44:49;98780.06;;;5.80;96.25
40315;BME280;26021;45.640;11.302;2023-04-07T02:47:15;98779.78;;;5.55;97.17
40315;BME280;26021;45.640;11.302;2023-04-07T02:49:40;98736.09;;;5.13;99.33
40315;BME280;26021;45.640;11.302;2023-04-07T02:52:05;98768.53;;;5.71;96.04
40315;BME280;26021;45.640;11.302;2023-04-07T02:54:31;98767.84;;;5.69;97.85
40315;BME280;26021;45.640;11.302;2023-04-07T02:56:56;98698.09;;;5.31;97.53
40315;BME280;26021;45.640;11.302;2023-04-07T02:59:22;98691.59;;;5.16;97.23
40315;BME280;26021;45.640;11.302;2023-04-07T03:01:48;98768.63;;;5.79;94.47
40315;BME280;26021;45.640;11.302;2023-04-07T03:04:13;98644.75;;;5.07;93.96
40315;BME280;26021;45.640;11.302;2023-04-07T03:06:38;98750.97;;;5.88;94.32
40315;BME280;26021;45.640;11.302;2023-04-07T03:09:05;98761.69;;;5.68;97.89
40315;BME280;26021;45.640;11.302;2023-04-07T03:11:31;98766.22;;;5.95;97.51
40315;BME280;26021;45.640;11.302;2023-04-07T03:13:56;98766.94;;;5.78;98.32
40315;BME280;26021;45.640;11.302;2023-04-07T03:16:22;98770.50;;;5.69;98.22
40315;BME280;26021;45.640;11.302;2023-04-07T03:18:47;98763.06;;;5.72;98.23
40315;BME280;26021;45.640;11.302;2023-04-07T03:21:13;98766.50;;;5.83;95.77
40315;BME280;26021;45.640;11.302;2023-04-07T03:23:38;98765.06;;;5.88;95.00
40315;BME280;26021;45.640;11.302;2023-04-07T03:26:03;98759.84;;;6.06;94.73
40315;BME280;26021;45.640;11.302;2023-04-07T03:28:29;98749.50;;;5.75;97.04
40315;BME280;26021;45.640;11.302;2023-04-07T03:30:54;98754.69;;;6.04;94.84
40315;BME280;26021;45.640;11.302;2023-04-07T03:33:20;98752.53;;;5.90;96.14
40315;BME280;26021;45.640;11.302;2023-04-07T03:35:46;98717.63;;;5.58;97.79
40315;BME280;26021;45.640;11.302;2023-04-07T03:38:11;98740.66;;;5.85;98.37
40315;BME280;26021;45.640;11.302;2023-04-07T03:40:37;98755.06;;;6.27;94.14
40315;BME280;26021;45.640;11.302;2023-04-07T03:43:02;98754.78;;;6.30;92.83
40315;BME280;26021;45.640;11.302;2023-04-07T03:45:28;98754.16;;;6.01;94.59
40315;BME280;26021;45.640;11.302;2023-04-07T03:47:53;98733.09;;;5.90;94.36
40315;BME280;26021;45.640;11.302;2023-04-07T03:50:19;98755.03;;;5.92;95.09
40315;BME280;26021;45.640;11.302;2023-04-07T03:52:44;98755.22;;;5.81;98.42
40315;BME280;26021;45.640;11.302;2023-04-07T03:55:10;98754.59;;;5.96;98.00
40315;BME280;26021;45.640;11.302;2023-04-07T03:57:35;98739.13;;;5.82;95.14
40315;BME280;26021;45.640;11.302;2023-04-07T04:00:01;98766.50;;;5.83;96.14
40315;BME280;26021;45.640;11.302;2023-04-07T04:02:27;98664.22;;;5.25;95.87
40315;BME280;26021;45.640;11.302;2023-04-07T04:04:52;98747.22;;;5.63;97.18
40315;BME280;26021;45.640;11.302;2023-04-07T04:07:17;98763.41;;;5.87;97.53
40315;BME280;26021;45.640;11.302;2023-04-07T04:09:43;98758.16;;;5.78;98.69
40315;BME280;26021;45.640;11.302;2023-04-07T04:12:08;98756.72;;;5.83;98.98
40315;BME280;26021;45.640;11.302;2023-04-07T04:14:34;98751.22;;;5.67;100.00
40315;BME280;26021;45.640;11.302;2023-04-07T04:16:59;98749.41;;;5.67;100.00
40315;BME280;26021;45.640;11.302;2023-04-07T04:19:25;98700.06;;;5.20;100.00
40315;BME280;26021;45.640;11.302;2023-04-07T04:21:50;98741.84;;;5.45;100.00
40315;BME280;26021;45.640;11.302;2023-04-07T04:24:16;98745.97;;;5.57;100.00
40315;BME280;26021;45.640;11.302;2023-04-07T04:26:41;98745.00;;;5.58;100.00
40315;BME280;26021;45.640;11.302;2023-04-07T04:29:07;98741.03;;;5.45;100.00
40315;BME280;26021;45.640;11.302;2023-04-07T04:31:32;98750.56;;;5.37;99.48
40315;BME280;26021;45.640;11.302;2023-04-07T04:33:57;98671.47;;;4.86;96.20
40315;BME280;26021;45.640;11.302;2023-04-07T04:36:23;98755.75;;;5.20;96.59
40315;BME280;26021;45.640;11.302;2023-04-07T04:38:48;98706.38;;;4.72;100.00
40315;BME280;26021;45.640;11.302;2023-04-07T04:41:14;98768.06;;;5.11;100.00
40315;BME280;26021;45.640;11.302;2023-04-07T04:43:39;98756.50;;;5.02;100.00
40315;BME280;26021;45.640;11.302;2023-04-07T04:46:05;98754.69;;;5.03;100.00
40315;BME280;26021;45.640;11.302;2023-04-07T04:48:30;98765.28;;;5.13;100.00
40315;BME280;26021;45.640;11.302;2023-04-07T04:50:56;98772.19;;;4.86;100.00
40315;BME280;26021;45.640;11.302;2023-04-07T04:53:21;98760.81;;;5.23;97.24
40315;BME280;26021;45.640;11.302;2023-04-07T04:55:47;98748.78;;;5.28;95.21
40315;BME280;26021;45.640;11.302;2023-04-07T04:58:17;98760.06;;;5.30;95.10
40315;BME280;26021;45.640;11.302;2023-04-07T05:00:42;98765.81;;;5.26;94.50
40315;BME280;26021;45.640;11.302;2023-04-07T05:03:08;98768.59;;;5.24;95.85
40315;BME280;26021;45.640;11.302;2023-04-07T05:05:33;98764.69;;;5.19;95.64
40315;BME280;26021;45.640;11.302;2023-04-07T05:07:59;98686.59;;;4.66;94.74
40315;BME280;26021;45.640;11.302;2023-04-07T05:10:24;98760.13;;;5.11;95.33
40315;BME280;26021;45.640;11.302;2023-04-07T05:12:49;98595.16;;;4.06;95.60
40315;BME280;26021;45.640;11.302;2023-04-07T05:15:15;98750.81;;;4.97;96.58
40315;BME280;26021;45.640;11.302;2023-04-07T05:17:40;98743.88;;;4.77;98.12
40315;BME280;26021;45.640;11.302;2023-04-07T05:20:08;98762.47;;;5.14;95.85
40315;BME280;26021;45.640;11.302;2023-04-07T05:22:34;98735.06;;;4.96;92.98
40315;BME280;26021;45.640;11.302;2023-04-07T05:25:00;98702.19;;;4.79;92.61
40315;BME280;26021;45.640;11.302;2023-04-07T05:27:26;98764.69;;;5.19;92.90
40315;BME280;26021;45.640;11.302;2023-04-07T05:29:51;98756.06;;;5.07;94.91
40315;BME280;26021;45.640;11.302;2023-04-07T05:32:17;98736.88;;;4.95;96.04
40315;BME280;26021;45.640;11.302;2023-04-07T05:34:43;98721.47;;;5.08;95.25
40315;BME280;26021;45.640;11.302;2023-04-07T05:37:09;98741.66;;;5.19;96.76
40315;BME280;26021;45.640;11.302;2023-04-07T05:39:35;98764.53;;;5.30;95.81
40315;BME280;26021;45.640;11.302;2023-04-07T05:42:00;98762.19;;;5.17;96.76
40315;BME280;26021;45.640;11.302;2023-04-07T05:44:27;98549.34;;;3.96;96.15
40315;BME280;26021;45.640;11.302;2023-04-07T05:46:52;98766.22;;;5.31;95.97
40315;BME280;26021;45.640;11.302;2023-04-07T05:49:18;98753.06;;;5.39;96.50
40315;BME280;26021;45.640;11.302;2023-04-07T05:51:43;98765.91;;;5.34;97.34
40315;BME280;26021;45.640;11.302;2023-04-07T05:54:09;98759.94;;;5.59;98.29
40315;BME280;26021;45.640;11.302;2023-04-07T05:56:34;98755.88;;;5.92;96.62
40315;BME280;26021;45.640;11.302;2023-04-07T05:59:00;98655.31;;;5.17;93.71
40315;BME280;26021;45.640;11.302;2023-04-07T06:01:26;98767.72;;;5.88;92.64
40315;BME280;26021;45.640;11.302;2023-04-07T06:03:51;98766.78;;;5.89;93.93
40315;BME280;26021;45.640;11.302;2023-04-07T06:06:17;98761.00;;;6.03;93.50
40315;BME280;26021;45.640;11.302;2023-04-07T06:08:42;98761.75;;;6.49;87.58
40315;BME280;26021;45.640;11.302;2023-04-07T06:11:08;98753.84;;;6.57;87.73
40315;BME280;26021;45.640;11.302;2023-04-07T06:13:33;98701.19;;;6.35;87.65
40315;BME280;26021;45.640;11.302;2023-04-07T06:15:58;98761.34;;;6.62;89.07
40315;BME280;26021;45.640;11.302;2023-04-07T06:18:24;98742.94;;;7.12;85.62
40315;BME280;26021;45.640;11.302;2023-04-07T06:20:49;98755.09;;;7.15;82.81
40315;BME280;26021;45.640;11.302;2023-04-07T06:23:15;98677.38;;;6.69;80.19
40315;BME280;26021;45.640;11.302;2023-04-07T06:25:40;98753.44;;;7.14;82.08
40315;BME280;26021;45.640;11.302;2023-04-07T06:28:06;98750.16;;;7.54;77.65
40315;BME280;26021;45.640;11.302;2023-04-07T06:30:31;98697.38;;;7.07;79.83
40315;BME280;26021;45.640;11.302;2023-04-07T06:32:57;98753.50;;;7.56;79.67
40315;BME280;26021;45.640;11.302;2023-04-07T06:35:22;98746.53;;;7.63;78.04
40315;BME280;26021;45.640;11.302;2023-04-07T06:37:51;98748.84;;;8.16;76.01
40315;BME280;26021;45.640;11.302;2023-04-07T06:40:16;98739.59;;;8.77;73.88
40315;BME280;26021;45.640;11.302;2023-04-07T06:42:41;98743.59;;;8.89;70.17
40315;BME280;26021;45.640;11.302;2023-04-07T06:45:07;98745.25;;;9.07;70.35
40315;BME280;26021;45.640;11.302;2023-04-07T06:47:33;98747.88;;;9.23;68.69
40315;BME280;26021;45.640;11.302;2023-04-07T06:49:59;98750.09;;;9.03;67.55
40315;BME280;26021;45.640;11.302;2023-04-07T06:52:24;98738.25;;;8.81;67.54
40315;BME280;26021;45.640;11.302;2023-04-07T06:54:50;98742.25;;;9.02;66.67
40315;BME280;26021;45.640;11.302;2023-04-07T06:57:15;98729.16;;;9.39;66.28
40315;BME280;26021;45.640;11.302;2023-04-07T06:59:41;98737.06;;;9.72;63.98
40315;BME280;26021;45.640;11.302;2023-04-07T07:02:06;98708.13;;;9.83;60.75
40315;BME280;26021;45.640;11.302;2023-04-07T07:04:33;98729.03;;;9.72;60.50
40315;BME280;26021;45.640;11.302;2023-04-07T07:06:59;98708.47;;;10.34;59.64
40315;BME280;26021;45.640;11.302;2023-04-07T07:09:24;98724.72;;;10.56;58.47
40315;BME280;26021;45.640;11.302;2023-04-07T07:11:51;98725.44;;;10.49;57.13
40315;BME280;26021;45.640;11.302;2023-04-07T07:14:17;98722.13;;;11.00;56.77
40315;BME280;26021;45.640;11.302;2023-04-07T07:16:42;98699.19;;;10.68;58.08
40315;BME280;26021;45.640;11.302;2023-04-07T07:19:08;98712.75;;;10.66;58.09
40315;BME280;26021;45.640;11.302;2023-04-07T07:21:33;98522.66;;;9.32;58.96
40315;BME280;26021;45.640;11.302;2023-04-07T07:23:59;98723.97;;;10.39;60.10
40315;BME280;26021;45.640;11.302;2023-04-07T07:26:25;98692.00;;;10.00;58.04
40315;BME280;26021;45.640;11.302;2023-04-07T07:28:51;98603.06;;;9.60;60.36
40315;BME280;26021;45.640;11.302;2023-04-07T07:31:16;98650.97;;;9.93;58.79
40315;BME280;26021;45.640;11.302;2023-04-07T07:33:42;98715.38;;;10.52;58.51
40315;BME280;26021;45.640;11.302;2023-04-07T07:36:10;98720.06;;;10.72;57.86
40315;BME280;26021;45.640;11.302;2023-04-07T07:38:35;98716.09;;;10.68;57.25
40315;BME280;26021;45.640;11.302;2023-04-07T07:41:01;98718.63;;;10.99;57.19
40315;BME280;26021;45.640;11.302;2023-04-07T07:43:27;98708.59;;;11.60;56.13
40315;BME280;26021;45.640;11.302;2023-04-07T07:45:52;98705.81;;;11.98;54.64
40315;BME280;26021;45.640;11.302;2023-04-07T07:48:18;98705.31;;;12.09;55.37
40315;BME280;26021;45.640;11.302;2023-04-07T07:50:43;98703.97;;;12.41;54.13
40315;BME280;26021;45.640;11.302;2023-04-07T07:53:09;98698.53;;;12.56;53.88
40315;BME280;26021;45.640;11.302;2023-04-07T07:55:34;98695.97;;;12.05;54.73
40315;BME280;26021;45.640;11.302;2023-04-07T07:58:00;98700.44;;;11.83;55.65
40315;BME280;26021;45.640;11.302;2023-04-07T08:00:26;98711.84;;;11.41;58.29
40315;BME280;26021;45.640;11.302;2023-04-07T08:02:51;98713.47;;;11.71;55.06
40315;BME280;26021;45.640;11.302;2023-04-07T08:05:17;98709.44;;;11.90;55.01
40315;BME280;26021;45.640;11.302;2023-04-07T08:07:42;98707.22;;;12.36;56.71
40315;BME280;26021;45.640;11.302;2023-04-07T08:10:08;98645.44;;;12.23;53.02
40315;BME280;26021;45.640;11.302;2023-04-07T08:12:34;98621.19;;;12.10;56.30
40315;BME280;26021;45.640;11.302;2023-04-07T08:14:59;98699.88;;;12.45;54.97
40315;BME280;26021;45.640;11.302;2023-04-07T08:17:25;98706.41;;;12.36;54.72
40315;BME280;26021;45.640;11.302;2023-04-07T08:19:50;98698.22;;;12.23;53.58
40315;BME280;26021;45.640;11.302;2023-04-07T08:22:16;98694.72;;;12.22;57.13
40315;BME280;26021;45.640;11.302;2023-04-07T08:24:43;98623.78;;;12.03;55.54
40315;BME280;26021;45.640;11.302;2023-04-07T08:27:09;98653.47;;;12.02;54.40
40315;BME280;26021;45.640;11.302;2023-04-07T08:29:35;98633.91;;;11.87;57.55
40315;BME280;26021;45.640;11.302;2023-04-07T08:32:00;98686.16;;;12.12;58.04
40315;BME280;26021;45.640;11.302;2023-04-07T08:34:26;98701.00;;;11.93;57.46
40315;BME280;26021;45.640;11.302;2023-04-07T08:36:51;98707.94;;;12.24;56.36
40315;BME280;26021;45.640;11.302;2023-04-07T08:39:16;98702.56;;;12.24;55.67
40315;BME280;26021;45.640;11.302;2023-04-07T08:41:43;98709.84;;;12.30;56.33
40315;BME280;26021;45.640;11.302;2023-04-07T08:44:10;98668.53;;;12.03;54.84
40315;BME280;26021;45.640;11.302;2023-04-07T08:46:37;98704.03;;;12.26;53.07
40315;BME280;26021;45.640;11.302;2023-04-07T08:49:07;98700.41;;;12.34;50.92
40315;BME280;26021;45.640;11.302;2023-04-07T08:51:36;98650.94;;;11.79;50.01
40315;BME280;26021;45.640;11.302;2023-04-07T08:54:15;98702.88;;;12.35;50.05
40315;BME280;26021;45.640;11.302;2023-04-07T08:56:41;98692.28;;;12.27;50.12
40315;BME280;26021;45.640;11.302;2023-04-07T08:59:09;98693.44;;;12.18;50.37
40315;BME280;26021;45.640;11.302;2023-04-07T09:01:35;98689.53;;;12.21;49.38
40315;BME280;26021;45.640;11.302;2023-04-07T09:04:04;98682.38;;;12.28;47.86
40315;BME280;26021;45.640;11.302;2023-04-07T09:06:34;98618.38;;;11.97;47.95
40315;BME280;26021;45.640;11.302;2023-04-07T09:09:00;98683.72;;;12.17;47.46
40315;BME280;26021;45.640;11.302;2023-04-07T09:11:27;98676.81;;;12.51;48.50
40315;BME280;26021;45.640;11.302;2023-04-07T09:13:53;98616.06;;;12.15;47.80
40315;BME280;26021;45.640;11.302;2023-04-07T09:16:19;98649.94;;;12.44;48.80
40315;BME280;26021;45.640;11.302;2023-04-07T09:18:45;98669.69;;;12.36;50.06
40315;BME280;26021;45.640;11.302;2023-04-07T09:21:10;98664.13;;;12.38;47.63
40315;BME280;26021;45.640;11.302;2023-04-07T09:23:40;98636.56;;;12.01;49.15
40315;BME280;26021;45.640;11.302;2023-04-07T09:28:58;98661.25;;;12.39;50.01
40315;BME280;26021;45.640;11.302;2023-04-07T09:31:43;98673.16;;;12.58;50.31
40315;BME280;26021;45.640;11.302;2023-04-07T09:34:27;98652.41;;;12.67;50.16
40315;BME280;26021;45.640;11.302;2023-04-07T09:36:54;98644.97;;;12.20;48.21
40315;BME280;26021;45.640;11.302;2023-04-07T09:39:19;98662.38;;;12.52;49.25
40315;BME280;26021;45.640;11.302;2023-04-07T09:41:45;98670.28;;;12.81;48.50
40315;BME280;26021;45.640;11.302;2023-04-07T09:44:11;98665.56;;;12.62;48.70
40315;BME280;26021;45.640;11.302;2023-04-07T09:46:50;98661.34;;;12.74;48.75
40315;BME280;26021;45.640;11.302;2023-04-07T09:49:15;98601.09;;;12.77;49.52
40315;BME280;26021;45.640;11.302;2023-04-07T09:51:55;98659.09;;;13.05;47.94
40315;BME280;26021;45.640;11.302;2023-04-07T09:57:01;98648.88;;;13.57;48.01
40315;BME280;26021;45.640;11.302;2023-04-07T09:59:28;98645.63;;;13.81;47.62
40315;BME280;26021;45.640;11.302;2023-04-07T10:01:54;98614.41;;;13.26;47.96
40315;BME280;26021;45.640;11.302;2023-04-07T10:04:21;98480.38;;;12.49;47.69
40315;BME280;26021;45.640;11.302;2023-04-07T10:06:47;98635.91;;;13.74;48.08
40315;BME280;26021;45.640;11.302;2023-04-07T10:09:13;98633.38;;;13.59;48.98
40315;BME280;26021;45.640;11.302;2023-04-07T10:11:40;98511.66;;;13.11;49.13
40315;BME280;26021;45.640;11.302;2023-04-07T10:14:08;98468.88;;;13.09;48.17
40315;BME280;26021;45.640;11.302;2023-04-07T10:16:34;98633.03;;;13.88;47.70
40315;BME280;26021;45.640;11.302;2023-04-07T10:19:01;98633.41;;;13.72;47.86
40315;BME280;26021;45.640;11.302;2023-04-07T10:21:27;98580.44;;;13.53;47.94
40315;BME280;26021;45.640;11.302;2023-04-07T10:24:18;98566.88;;;13.26;47.98
40315;BME280;26021;45.640;11.302;2023-04-07T10:26:53;98626.00;;;13.87;48.89
40315;BME280;26021;45.640;11.302;2023-04-07T10:29:21;98633.22;;;13.80;49.57
40315;BME280;26021;45.640;11.302;2023-04-07T10:31:48;98552.75;;;13.59;49.05
40315;BME280;26021;45.640;11.302;2023-04-07T10:34:14;98633.03;;;13.88;49.11
40315;BME280;26021;45.640;11.302;2023-04-07T10:37:08;98628.25;;;13.77;49.89
40315;BME280;26021;45.640;11.302;2023-04-07T10:39:34;98551.78;;;13.19;49.23
40315;BME280;26021;45.640;11.302;2023-04-07T10:42:02;98625.88;;;13.48;50.01
40315;BME280;26021;45.640;11.302;2023-04-07T10:44:46;98607.72;;;13.56;50.13
40315;BME280;26021;45.640;11.302;2023-04-07T10:47:13;98620.44;;;13.89;50.58
40315;BME280;26021;45.640;11.302;2023-04-07T10:49:38;98616.50;;;13.91;49.93
40315;BME280;26021;45.640;11.302;2023-04-07T10:54:35;98557.91;;;13.47;48.54
40315;BME280;26021;45.640;11.302;2023-04-07T10:59:29;98560.63;;;13.60;49.11
40315;BME280;26021;45.640;11.302;2023-04-07T11:02:29;98604.53;;;14.00;49.15
40315;BME280;26021;45.640;11.302;2023-04-07T11:04:54;98597.66;;;13.85;49.16
40315;BME280;26021;45.640;11.302;2023-04-07T11:07:44;98606.78;;;13.84;49.13
40315;BME280;26021;45.640;11.302;2023-04-07T11:10:11;98509.44;;;13.21;49.92
40315;BME280;26021;45.640;11.302;2023-04-07T11:12:36;98597.03;;;13.76;49.18
40315;BME280;26021;45.640;11.302;2023-04-07T11:15:20;98604.09;;;14.04;49.18
40315;BME280;26021;45.640;11.302;2023-04-07T11:18:04;98602.63;;;13.81;50.90
40315;BME280;26021;45.640;11.302;2023-04-07T11:23:08;98595.84;;;14.12;50.00
40315;BME280;26021;45.640;11.302;2023-04-07T11:25:34;98342.88;;;12.81;49.14
40315;BME280;26021;45.640;11.302;2023-04-07T11:28:00;98447.34;;;13.57;48.68
40315;BME280;26021;45.640;11.302;2023-04-07T11:30:26;98576.84;;;14.26;48.64
40315;BME280;26021;45.640;11.302;2023-04-07T11:32:52;98568.97;;;14.25;47.13
40315;BME280;26021;45.640;11.302;2023-04-07T11:35:17;98574.16;;;14.26;49.29
40315;BME280;26021;45.640;11.302;2023-04-07T11:37:43;98555.13;;;14.21;47.68
40315;BME280;26021;45.640;11.302;2023-04-07T11:40:08;98577.91;;;14.45;47.29
40315;BME280;26021;45.640;11.302;2023-04-07T11:42:38;98577.22;;;14.10;49.52
40315;BME280;26021;45.640;11.302;2023-04-07T11:45:05;98329.88;;;12.85;50.38
40315;BME280;26021;45.640;11.302;2023-04-07T11:47:38;98527.59;;;14.13;48.40
40315;BME280;26021;45.640;11.302;2023-04-07T11:50:04;98576.66;;;14.48;48.56
40315;BME280;26021;45.640;11.302;2023-04-07T11:52:43;98579.31;;;14.15;50.07
40315;BME280;26021;45.640;11.302;2023-04-07T11:55:18;98573.13;;;14.34;50.23
40315;BME280;26021;45.640;11.302;2023-04-07T11:57:45;98569.38;;;14.88;47.62
40315;BME280;26021;45.640;11.302;2023-04-07T12:00:12;98506.47;;;14.56;48.52
40315;BME280;26021;45.640;11.302;2023-04-07T12:02:38;98505.16;;;14.85;48.64
40315;BME280;26021;45.640;11.302;2023-04-07T12:05:05;98553.59;;;14.98;47.21
40315;BME280;26021;45.640;11.302;2023-04-07T12:07:30;98560.88;;;14.71;48.85
40315;BME280;26021;45.640;11.302;2023-04-07T12:09:56;98559.84;;;14.72;48.20
40315;BME280;26021;45.640;11.302;2023-04-07T12:12:28;98560.28;;;14.62;47.80
40315;BME280;26021;45.640;11.302;2023-04-07T12:14:55;98519.31;;;14.41;46.34
40315;BME280;26021;45.640;11.302;2023-04-07T12:17:25;98563.78;;;13.97;45.42
40315;BME280;26021;45.640;11.302;2023-04-07T12:19:51;98567.94;;;14.26;46.18
40315;BME280;26021;45.640;11.302;2023-04-07T12:22:18;98531.53;;;14.43;45.33
40315;BME280;26021;45.640;11.302;2023-04-07T12:24:43;98560.69;;;14.66;44.71
40315;BME280;26021;45.640;11.302;2023-04-07T12:27:09;98559.44;;;14.75;45.45
40315;BME280;26021;45.640;11.302;2023-04-07T12:29:35;98503.16;;;14.34;44.07
40315;BME280;26021;45.640;11.302;2023-04-07T12:32:02;98495.28;;;14.59;43.57
40315;BME280;26021;45.640;11.302;2023-04-07T12:34:28;98553.88;;;14.50;43.42
40315;BME280;26021;45.640;11.302;2023-04-07T12:36:53;98560.72;;;14.46;45.31
40315;BME280;26021;45.640;11.302;2023-04-07T12:39:19;98551.34;;;14.75;45.07
40315;BME280;26021;45.640;11.302;2023-04-07T12:41:45;98518.50;;;14.34;44.35
40315;BME280;26021;45.640;11.302;2023-04-07T12:44:11;98550.56;;;14.35;44.88
40315;BME280;26021;45.640;11.302;2023-04-07T12:46:37;98491.16;;;13.71;45.04
40315;BME280;26021;45.640;11.302;2023-04-07T12:49:02;98547.28;;;14.46;45.02
40315;BME280;26021;45.640;11.302;2023-04-07T12:51:28;98499.03;;;13.98;44.18
40315;BME280;26021;45.640;11.302;2023-04-07T12:53:53;98547.03;;;14.61;44.09
40315;BME280;26021;45.640;11.302;2023-04-07T12:56:19;98522.00;;;14.08;43.96
40315;BME280;26021;45.640;11.302;2023-04-07T12:58:47;98548.94;;;14.47;43.41
40315;BME280;26021;45.640;11.302;2023-04-07T13:01:12;98474.41;;;14.48;43.85
40315;BME280;26021;45.640;11.302;2023-04-07T13:03:38;98541.53;;;15.07;43.15
40315;BME280;26021;45.640;11.302;2023-04-07T13:06:04;98535.75;;;15.04;43.07
40315;BME280;26021;45.640;11.302;2023-04-07T13:08:30;98539.34;;;15.36;42.97
40315;BME280;26021;45.640;11.302;2023-04-07T13:10:56;98532.19;;;15.16;42.29
40315;BME280;26021;45.640;11.302;2023-04-07T13:13:22;98519.03;;;14.82;42.40
40315;BME280;26021;45.640;11.302;2023-04-07T13:15:48;98535.19;;;14.88;44.16